Riverton, Washington
Current Conditions -  °F | °C
As of 3:53 AM on Saturday 25 Oct 2014 (Local Time) from KSEA Reporting Station
Overcast Overcast  
Wind Chill: 49°   Ceiling: 12000
Heat Index: 49°   Visibility: 10mi
Dew Point: 47°   Wind: 0mph
Humidity: 93%   Direction: NA
Pressure: 29.58"   Gusts: NA
Location:  47.4488°N, 122.28°W
Report Text: KSEA 251053Z 00000KT 10SM FEW060 OVC120 09/08 A2958 RMK AO2 SLP023 T00940083
Loading
Personal Weather Stations






























Interactive Weather Map
Tropical Storm Tracking
New forecast layout! Learn more

10-Day Weather Forecast

Advertisements
Track Severe Weather on mobile